Time;durP1;ratioP1;P1;durP2;ratioP2;P2;SDS_P1;SDS_P2;PMS_P1;PMS_P2;Temp;Humidity;BMP_temperature;BMP_pressure;BME280_temperature;BME280_humidity;BME280_pressure;Samples;Min_cycle;Max_cycle;Signal;HPM_P1;HPM_P2
2022/10/30 00:01:15;;;;;;;18.08;9.50;;;;;;;;;;5125581;27;20061;-81
2022/10/30 00:03:42;;;;;;;19.23;9.23;;;;;;;;;;5145792;27;20051;-81
2022/10/30 00:06:08;;;;;;;20.25;8.77;;;;;;;;;;5127931;27;20066;-81
2022/10/30 00:08:34;;;;;;;21.02;9.32;;;;;;;;;;5112314;27;20051;-81
2022/10/30 00:11:05;;;;;;;21.85;8.90;;;;;;;;;;5124937;27;20059;-81
2022/10/30 00:13:31;;;;;;;20.60;9.02;;;;;;;;;;5110067;27;20609;-80
2022/10/30 00:15:57;;;;;;;23.42;9.50;;;;;;;;;;5107623;27;20059;-81
2022/10/30 00:18:24;;;;;;;16.73;8.38;;;;;;;;;;5121820;27;20047;-81
2022/10/30 00:20:50;;;;;;;19.60;8.93;;;;;;;;;;5107655;27;20498;-80
2022/10/30 00:23:16;;;;;;;17.63;8.55;;;;;;;;;;5120282;27;20052;-81
2022/10/30 00:25:43;;;;;;;23.83;8.73;;;;;;;;;;5125424;27;20062;-81
2022/10/30 00:28:09;;;;;;;21.75;8.73;;;;;;;;;;5146458;27;20057;-81
2022/10/30 00:30:36;;;;;;;22.33;8.80;;;;;;;;;;5146310;27;20063;-81
2022/10/30 00:33:03;;;;;;;21.63;9.25;;;;;;;;;;5145214;27;21038;-81
2022/10/30 00:35:29;;;;;;;21.67;9.25;;;;;;;;;;5145369;27;20053;-81
2022/10/30 00:37:56;;;;;;;19.38;8.75;;;;;;;;;;5125549;27;20066;-81
2022/10/30 00:40:23;;;;;;;19.35;8.27;;;;;;;;;;5144802;27;20159;-81
2022/10/30 00:42:49;;;;;;;22.67;9.25;;;;;;;;;;5126270;27;20043;-81
2022/10/30 00:45:16;;;;;;;19.85;8.57;;;;;;;;;;5128051;27;20479;-81
2022/10/30 00:47:43;;;;;;;23.98;9.27;;;;;;;;;;5145623;27;20522;-81
2022/10/30 00:50:10;;;;;;;20.15;9.25;;;;;;;;;;5124136;27;20055;-81
2022/10/30 00:52:39;;;;;;;18.70;8.77;;;;;;;;;;5145803;27;20875;-81
2022/10/30 00:55:10;;;;;;;25.65;9.77;;;;;;;;;;5145822;27;20047;-81
2022/10/30 00:57:37;;;;;;;19.50;8.63;;;;;;;;;;5128626;27;20059;-81
2022/10/30 01:00:05;;;;;;;20.40;8.70;;;;;;;;;;5143754;27;20440;-81
2022/10/30 01:02:31;;;;;;;24.30;9.00;;;;;;;;;;5144646;27;20038;-80
2022/10/30 01:04:58;;;;;;;22.52;8.45;;;;;;;;;;5118769;27;20062;-80
2022/10/30 01:07:24;;;;;;;21.15;9.15;;;;;;;;;;5124507;27;20067;-79
2022/10/30 01:09:50;;;;;;;17.27;8.60;;;;;;;;;;5127050;27;20058;-79
2022/10/30 01:12:17;;;;;;;17.45;9.45;;;;;;;;;;5141188;27;20054;-80
2022/10/30 01:14:52;;;;;;;24.85;9.38;;;;;;;;;;5140434;27;20047;-80
2022/10/30 01:17:33;;;;;;;28.05;9.70;;;;;;;;;;5143159;27;20082;-80
2022/10/30 01:19:59;;;;;;;21.88;8.15;;;;;;;;;;5146266;27;20518;-80
2022/10/30 01:22:34;;;;;;;23.27;9.73;;;;;;;;;;5126011;27;20040;-80
2022/10/30 01:25:19;;;;;;;22.85;8.95;;;;;;;;;;5134149;27;20051;-80
2022/10/30 01:27:45;;;;;;;19.25;9.25;;;;;;;;;;5133671;27;20536;-80
2022/10/30 01:30:30;;;;;;;20.48;8.55;;;;;;;;;;5153000;27;20051;-80
2022/10/30 01:33:15;;;;;;;20.77;8.70;;;;;;;;;;5144278;27;20059;-81
2022/10/30 01:35:55;;;;;;;24.10;9.38;;;;;;;;;;5135677;27;20175;-80
2022/10/30 01:38:34;;;;;;;23.67;8.95;;;;;;;;;;5153685;27;20043;-80
2022/10/30 01:41:01;;;;;;;19.52;9.23;;;;;;;;;;5152267;27;20047;-80
2022/10/30 01:43:27;;;;;;;23.33;8.57;;;;;;;;;;5154334;27;20031;-80
2022/10/30 01:46:08;;;;;;;21.42;9.18;;;;;;;;;;5149700;27;20043;-81
2022/10/30 01:48:53;;;;;;;20.85;8.57;;;;;;;;;;5155020;27;20085;-81
2022/10/30 01:51:32;;;;;;;20.98;8.85;;;;;;;;;;5136471;27;20047;-80
2022/10/30 01:54:20;;;;;;;17.42;9.32;;;;;;;;;;5135900;27;20055;-80
2022/10/30 01:56:58;;;;;;;17.77;8.38;;;;;;;;;;5131859;27;21108;-80
2022/10/30 01:59:27;;;;;;;22.27;9.10;;;;;;;;;;5129096;27;20059;-80
2022/10/30 02:01:54;;;;;;;23.17;8.95;;;;;;;;;;5150877;27;20051;-80
2022/10/30 02:04:21;;;;;;;19.45;8.50;;;;;;;;;;5150488;27;20043;-79
2022/10/30 02:06:48;;;;;;;17.45;9.30;;;;;;;;;;5151478;27;20061;-80
2022/10/30 02:09:15;;;;;;;22.40;8.82;;;;;;;;;;5146667;27;20098;-80
2022/10/30 02:11:43;;;;;;;22.92;9.35;;;;;;;;;;5131352;27;20550;-80
2022/10/30 02:14:09;;;;;;;18.50;8.80;;;;;;;;;;5130595;27;20081;-80
2022/10/30 02:16:40;;;;;;;21.60;8.77;;;;;;;;;;5146959;27;20047;-80
2022/10/30 02:19:06;;;;;;;20.15;9.05;;;;;;;;;;5128670;27;21083;-80
2022/10/30 02:21:33;;;;;;;20.20;9.32;;;;;;;;;;5131404;27;20066;-80
2022/10/30 02:23:59;;;;;;;24.23;9.27;;;;;;;;;;5130877;27;20047;-80
2022/10/30 02:26:25;;;;;;;20.30;9.70;;;;;;;;;;5145378;27;20057;-80
2022/10/30 02:28:51;;;;;;;21.40;10.00;;;;;;;;;;5131722;27;20059;-80
2022/10/30 02:31:18;;;;;;;23.77;9.95;;;;;;;;;;5129088;27;20043;-80
2022/10/30 02:33:45;;;;;;;19.67;10.07;;;;;;;;;;5121692;27;20058;-80
2022/10/30 02:36:14;;;;;;;24.65;9.80;;;;;;;;;;5129901;27;20529;-80
2022/10/30 02:38:40;;;;;;;25.58;9.63;;;;;;;;;;5148865;27;20173;-80
2022/10/30 02:41:07;;;;;;;21.05;9.40;;;;;;;;;;5148429;27;20055;-80
2022/10/30 02:43:33;;;;;;;18.80;9.70;;;;;;;;;;5144924;27;20441;-80
2022/10/30 02:45:59;;;;;;;26.13;9.90;;;;;;;;;;5116304;27;20055;-80
2022/10/30 02:48:26;;;;;;;23.75;9.85;;;;;;;;;;5148763;27;20191;-81
2022/10/30 02:50:52;;;;;;;22.83;10.48;;;;;;;;;;5130501;27;20042;-81
2022/10/30 02:53:18;;;;;;;26.55;10.27;;;;;;;;;;5130413;27;20054;-80
2022/10/30 02:55:45;;;;;;;24.20;10.43;;;;;;;;;;5114513;27;20793;-80
2022/10/30 02:58:11;;;;;;;22.85;10.43;;;;;;;;;;5129824;27;20062;-81
2022/10/30 03:00:38;;;;;;;20.63;10.20;;;;;;;;;;5130591;27;20047;-80
2022/10/30 03:03:04;;;;;;;23.02;9.30;;;;;;;;;;5144786;27;20056;-80
2022/10/30 03:05:30;;;;;;;23.08;9.85;;;;;;;;;;5136020;27;20605;-80
2022/10/30 03:07:57;;;;;;;21.73;10.07;;;;;;;;;;5126385;27;20059;-80
2022/10/30 03:10:24;;;;;;;21.90;9.93;;;;;;;;;;5147910;27;20562;-80
2022/10/30 03:12:50;;;;;;;20.27;9.80;;;;;;;;;;5131055;27;20413;-80
2022/10/30 03:15:16;;;;;;;20.85;9.73;;;;;;;;;;5120048;27;20232;-80
2022/10/30 03:17:43;;;;;;;20.70;9.70;;;;;;;;;;5115309;27;20473;-80
2022/10/30 03:20:09;;;;;;;18.45;9.55;;;;;;;;;;5129708;27;20047;-80
2022/10/30 03:22:36;;;;;;;24.48;10.57;;;;;;;;;;5130195;27;20043;-80
2022/10/30 03:25:02;;;;;;;26.58;10.52;;;;;;;;;;5127857;27;20476;-81
2022/10/30 03:27:28;;;;;;;28.30;11.27;;;;;;;;;;5149170;27;20067;-80
2022/10/30 03:29:55;;;;;;;22.40;10.60;;;;;;;;;;5120168;27;20047;-81
2022/10/30 03:32:21;;;;;;;22.02;10.27;;;;;;;;;;5130031;27;20047;-81
2022/10/30 03:34:47;;;;;;;23.92;10.65;;;;;;;;;;5139451;27;20062;-81
2022/10/30 03:37:13;;;;;;;19.10;10.13;;;;;;;;;;5157972;27;20043;-81
2022/10/30 03:39:40;;;;;;;22.13;10.30;;;;;;;;;;5149291;27;20051;-81
2022/10/30 03:42:06;;;;;;;22.73;10.50;;;;;;;;;;5147817;27;20051;-81
2022/10/30 03:44:32;;;;;;;24.30;11.05;;;;;;;;;;5128587;27;20067;-80
2022/10/30 03:46:59;;;;;;;21.73;10.70;;;;;;;;;;5128267;27;20074;-81
2022/10/30 03:49:25;;;;;;;23.45;9.10;;;;;;;;;;5143412;27;20049;-81
2022/10/30 03:51:51;;;;;;;22.83;10.15;;;;;;;;;;5148225;27;20059;-81
2022/10/30 03:54:18;;;;;;;21.55;10.60;;;;;;;;;;5145641;27;20059;-81
2022/10/30 03:56:44;;;;;;;25.92;9.68;;;;;;;;;;5147346;27;20051;-81
2022/10/30 03:59:11;;;;;;;23.48;9.65;;;;;;;;;;5129640;27;20055;-81
2022/10/30 04:01:37;;;;;;;23.90;10.82;;;;;;;;;;5130242;27;20066;-81
2022/10/30 04:04:04;;;;;;;23.25;9.82;;;;;;;;;;5129747;27;20103;-81
2022/10/30 04:06:30;;;;;;;22.40;10.13;;;;;;;;;;5128844;27;20546;-81
2022/10/30 04:08:56;;;;;;;21.42;10.90;;;;;;;;;;5127026;27;20047;-81
2022/10/30 04:11:23;;;;;;;22.23;10.73;;;;;;;;;;5128107;27;20124;-81
2022/10/30 04:13:49;;;;;;;22.70;10.48;;;;;;;;;;5127836;27;20051;-81
2022/10/30 04:16:15;;;;;;;20.55;10.20;;;;;;;;;;5146374;27;20078;-81
2022/10/30 04:18:42;;;;;;;21.30;10.52;;;;;;;;;;5144662;27;20050;-81
2022/10/30 04:21:08;;;;;;;30.98;10.02;;;;;;;;;;5144552;27;20084;-81
2022/10/30 04:23:34;;;;;;;22.08;10.80;;;;;;;;;;5147621;27;20051;-81
2022/10/30 04:26:01;;;;;;;19.63;9.80;;;;;;;;;;5129160;27;20055;-81
2022/10/30 04:28:27;;;;;;;20.48;9.70;;;;;;;;;;5147570;27;20055;-81
2022/10/30 04:30:53;;;;;;;23.27;11.02;;;;;;;;;;5135104;27;20055;-81
2022/10/30 04:33:20;;;;;;;26.83;10.85;;;;;;;;;;5147202;27;20057;-81
2022/10/30 04:35:46;;;;;;;25.52;11.48;;;;;;;;;;5147789;27;20055;-81
2022/10/30 04:38:13;;;;;;;24.17;11.60;;;;;;;;;;5146553;27;20062;-81
2022/10/30 04:40:40;;;;;;;24.45;10.30;;;;;;;;;;5129489;27;20059;-81
2022/10/30 04:43:07;;;;;;;25.35;9.65;;;;;;;;;;5144360;27;20062;-81
2022/10/30 04:45:33;;;;;;;19.20;9.05;;;;;;;;;;5129011;27;20519;-80
2022/10/30 04:48:00;;;;;;;21.52;9.57;;;;;;;;;;5128731;27;20058;-81
2022/10/30 04:50:27;;;;;;;23.48;11.02;;;;;;;;;;5129036;27;20051;-81
2022/10/30 04:53:06;;;;;;;28.33;11.35;;;;;;;;;;5147503;27;20058;-81
2022/10/30 04:55:33;;;;;;;18.60;9.88;;;;;;;;;;5141058;27;20035;-81
2022/10/30 04:58:01;;;;;;;19.67;10.00;;;;;;;;;;5129266;27;20054;-81
2022/10/30 05:00:28;;;;;;;22.35;9.60;;;;;;;;;;5127811;27;20058;-81
2022/10/30 05:02:57;;;;;;;21.70;10.15;;;;;;;;;;5147013;27;20063;-81
2022/10/30 05:05:23;;;;;;;27.77;11.73;;;;;;;;;;5129013;27;20058;-81
2022/10/30 05:07:49;;;;;;;26.25;10.63;;;;;;;;;;5142142;27;20066;-81
2022/10/30 05:10:17;;;;;;;19.00;9.63;;;;;;;;;;5126747;27;20051;-81
2022/10/30 05:12:44;;;;;;;26.08;10.82;;;;;;;;;;5141091;27;20058;-81
2022/10/30 05:15:11;;;;;;;20.05;10.48;;;;;;;;;;5147358;27;20051;-81
2022/10/30 05:17:37;;;;;;;27.48;10.35;;;;;;;;;;5129259;27;20055;-81
2022/10/30 05:20:04;;;;;;;28.98;10.45;;;;;;;;;;5127377;27;20058;-81
2022/10/30 05:22:31;;;;;;;24.55;11.50;;;;;;;;;;5147094;27;20039;-81
2022/10/30 05:24:57;;;;;;;20.33;9.93;;;;;;;;;;5128226;27;20078;-81
2022/10/30 05:27:23;;;;;;;21.05;10.38;;;;;;;;;;5127114;27;20176;-81
2022/10/30 05:29:50;;;;;;;23.40;11.57;;;;;;;;;;5127047;27;20058;-81
2022/10/30 05:32:16;;;;;;;25.60;11.57;;;;;;;;;;5125163;27;20486;-81
2022/10/30 05:34:42;;;;;;;25.98;10.60;;;;;;;;;;5135492;27;20063;-81
2022/10/30 05:37:08;;;;;;;26.13;10.38;;;;;;;;;;5128041;27;20062;-81
2022/10/30 05:39:35;;;;;;;22.73;10.35;;;;;;;;;;5142711;27;20047;-81
2022/10/30 05:42:01;;;;;;;22.70;10.68;;;;;;;;;;5119875;27;20061;-81
2022/10/30 05:44:27;;;;;;;20.58;10.32;;;;;;;;;;5124745;27;20052;-81
2022/10/30 05:47:14;;;;;;;23.63;11.13;;;;;;;;;;5147373;27;20051;-81
2022/10/30 05:49:40;;;;;;;24.02;11.38;;;;;;;;;;5128641;27;20433;-81
2022/10/30 05:52:06;;;;;;;25.40;11.93;;;;;;;;;;5146452;27;20062;-81
2022/10/30 05:54:32;;;;;;;21.20;10.68;;;;;;;;;;5144896;27;20059;-81
2022/10/30 05:56:59;;;;;;;34.75;12.27;;;;;;;;;;5143831;27;20055;-81
2022/10/30 05:59:25;;;;;;;26.08;12.00;;;;;;;;;;5132948;27;20532;-81
2022/10/30 06:01:51;;;;;;;27.52;11.48;;;;;;;;;;5143965;27;20043;-81
2022/10/30 06:04:18;;;;;;;22.50;11.60;;;;;;;;;;5147378;27;20051;-81
2022/10/30 06:06:44;;;;;;;29.00;12.80;;;;;;;;;;5128338;27;20152;-81
2022/10/30 06:09:10;;;;;;;24.33;11.70;;;;;;;;;;5123838;27;20047;-81
2022/10/30 06:11:36;;;;;;;30.05;12.70;;;;;;;;;;5128455;27;20058;-81
2022/10/30 06:14:03;;;;;;;26.02;11.60;;;;;;;;;;5137506;27;20056;-81
2022/10/30 06:16:29;;;;;;;22.42;10.98;;;;;;;;;;5130276;27;20051;-81
2022/10/30 06:19:00;;;;;;;27.58;11.25;;;;;;;;;;5126539;27;20560;-81
2022/10/30 06:21:26;;;;;;;26.67;12.20;;;;;;;;;;5131165;27;21425;-81
2022/10/30 06:23:53;;;;;;;22.13;10.70;;;;;;;;;;5131844;27;20055;-81
2022/10/30 06:26:19;;;;;;;31.25;11.77;;;;;;;;;;5135921;27;20055;-81
2022/10/30 06:28:45;;;;;;;21.73;10.35;;;;;;;;;;5127698;27;20449;-80
2022/10/30 06:31:12;;;;;;;23.67;10.80;;;;;;;;;;5126511;27;20059;-80
2022/10/30 06:33:38;;;;;;;23.45;11.10;;;;;;;;;;5130412;27;20067;-82
2022/10/30 06:36:04;;;;;;;22.08;9.90;;;;;;;;;;5149333;27;20058;-82
2022/10/30 06:38:31;;;;;;;22.83;10.32;;;;;;;;;;5130428;27;20054;-82
2022/10/30 06:40:57;;;;;;;23.08;11.82;;;;;;;;;;5148259;27;20055;-82
2022/10/30 06:43:23;;;;;;;28.48;11.15;;;;;;;;;;5147194;27;20063;-82
2022/10/30 06:45:50;;;;;;;34.72;11.82;;;;;;;;;;5129048;27;20577;-80
2022/10/30 06:48:17;;;;;;;26.13;10.98;;;;;;;;;;5149363;27;20058;-80
2022/10/30 06:50:43;;;;;;;28.13;13.68;;;;;;;;;;5135915;27;20070;-80
2022/10/30 06:53:10;;;;;;;27.27;12.90;;;;;;;;;;5149311;27;20833;-80
2022/10/30 06:55:36;;;;;;;26.65;12.68;;;;;;;;;;5128243;27;20498;-80
2022/10/30 06:58:02;;;;;;;27.83;11.77;;;;;;;;;;5126855;27;20056;-80
2022/10/30 07:00:29;;;;;;;20.20;11.23;;;;;;;;;;5144344;27;20051;-80
2022/10/30 07:02:58;;;;;;;23.58;11.02;;;;;;;;;;5148387;27;20189;-80
2022/10/30 07:05:25;;;;;;;25.60;11.65;;;;;;;;;;5129539;27;20867;-80
2022/10/30 07:07:54;;;;;;;24.67;11.20;;;;;;;;;;5127412;27;20455;-80
2022/10/30 07:10:20;;;;;;;24.08;11.93;;;;;;;;;;5130083;27;20047;-80
2022/10/30 07:13:04;;;;;;;26.30;11.18;;;;;;;;;;5130487;27;20044;-80
2022/10/30 07:15:30;;;;;;;22.38;11.23;;;;;;;;;;5140739;27;20055;-80
2022/10/30 07:17:58;;;;;;;28.58;11.68;;;;;;;;;;5139532;27;20059;-82
2022/10/30 07:20:25;;;;;;;32.13;10.90;;;;;;;;;;5145836;27;20034;-80
2022/10/30 07:22:52;;;;;;;25.30;11.20;;;;;;;;;;5130594;27;20059;-80
2022/10/30 07:25:19;;;;;;;23.52;11.45;;;;;;;;;;5129240;27;20051;-80
2022/10/30 07:27:47;;;;;;;24.67;12.18;;;;;;;;;;5131056;27;20081;-79
2022/10/30 07:30:14;;;;;;;27.83;13.38;;;;;;;;;;5126974;27;20062;-79
2022/10/30 07:32:41;;;;;;;28.50;12.88;;;;;;;;;;5128769;27;20187;-80
2022/10/30 07:35:08;;;;;;;26.92;12.60;;;;;;;;;;5129994;27;20634;-80
2022/10/30 07:37:34;;;;;;;25.10;12.40;;;;;;;;;;5129883;27;20082;-80
2022/10/30 07:40:01;;;;;;;24.17;12.82;;;;;;;;;;5135007;27;20176;-80
2022/10/30 07:42:27;;;;;;;26.13;12.30;;;;;;;;;;5141916;27;20793;-80
2022/10/30 07:44:53;;;;;;;25.05;11.82;;;;;;;;;;5146547;27;20051;-80
2022/10/30 07:47:20;;;;;;;24.50;13.05;;;;;;;;;;5141156;27;20510;-80
2022/10/30 07:49:46;;;;;;;30.08;13.27;;;;;;;;;;5121282;27;20054;-80
2022/10/30 07:52:12;;;;;;;29.33;13.73;;;;;;;;;;5126794;27;20066;-80
2022/10/30 07:54:42;;;;;;;25.60;12.85;;;;;;;;;;5135105;27;20127;-78
2022/10/30 07:57:08;;;;;;;21.08;11.32;;;;;;;;;;5144876;27;20145;-78
2022/10/30 07:59:35;;;;;;;22.60;12.18;;;;;;;;;;5146998;27;20043;-78
2022/10/30 08:02:01;;;;;;;27.65;12.85;;;;;;;;;;5112603;27;20051;-79
2022/10/30 08:04:27;;;;;;;26.05;13.18;;;;;;;;;;5139481;27;20543;-79
2022/10/30 08:06:54;;;;;;;30.58;12.82;;;;;;;;;;5127262;27;20047;-78
2022/10/30 08:09:20;;;;;;;27.70;13.77;;;;;;;;;;5143296;27;20047;-79
2022/10/30 08:11:46;;;;;;;35.03;16.52;;;;;;;;;;5145116;27;20085;-78
2022/10/30 08:14:13;;;;;;;28.08;13.27;;;;;;;;;;5126712;27;20059;-79
2022/10/30 08:16:39;;;;;;;37.42;16.65;;;;;;;;;;5149390;27;20031;-79
2022/10/30 08:19:05;;;;;;;26.10;13.45;;;;;;;;;;5130390;27;20062;-78
2022/10/30 08:21:31;;;;;;;31.73;14.50;;;;;;;;;;5128391;27;20051;-78
2022/10/30 08:23:58;;;;;;;27.63;14.48;;;;;;;;;;5137790;27;20058;-78
2022/10/30 08:26:24;;;;;;;32.75;14.60;;;;;;;;;;5127849;27;20046;-78
2022/10/30 08:28:50;;;;;;;38.38;16.10;;;;;;;;;;5128599;27;20059;-78
2022/10/30 08:31:17;;;;;;;32.45;14.82;;;;;;;;;;5127587;27;20136;-78
2022/10/30 08:33:43;;;;;;;30.90;14.68;;;;;;;;;;5139558;27;20094;-78
2022/10/30 08:36:09;;;;;;;31.60;14.85;;;;;;;;;;5145362;27;20051;-77
2022/10/30 08:38:36;;;;;;;30.38;13.85;;;;;;;;;;5140924;27;20051;-78
2022/10/30 08:41:02;;;;;;;34.80;15.00;;;;;;;;;;5144013;27;20051;-77
2022/10/30 08:43:28;;;;;;;32.47;14.95;;;;;;;;;;5138600;27;20521;-77
2022/10/30 08:45:56;;;;;;;28.80;14.02;;;;;;;;;;5144379;27;20481;-77
2022/10/30 08:48:22;;;;;;;25.17;14.25;;;;;;;;;;5124444;27;20058;-77
2022/10/30 08:50:49;;;;;;;26.45;14.43;;;;;;;;;;5147163;27;20055;-78
2022/10/30 08:53:15;;;;;;;27.15;14.40;;;;;;;;;;5144854;27;20059;-78
2022/10/30 08:55:41;;;;;;;23.55;12.48;;;;;;;;;;5125963;27;20055;-81
2022/10/30 08:58:08;;;;;;;22.88;12.80;;;;;;;;;;5136570;27;20051;-78
2022/10/30 09:00:34;;;;;;;25.00;12.43;;;;;;;;;;5149077;27;20047;-77
2022/10/30 09:03:00;;;;;;;27.55;13.45;;;;;;;;;;5149323;27;20055;-78
2022/10/30 09:05:28;;;;;;;27.58;13.63;;;;;;;;;;5138246;27;20060;-79
2022/10/30 09:07:55;;;;;;;33.05;14.57;;;;;;;;;;5140014;27;20058;-78
2022/10/30 09:10:22;;;;;;;26.48;14.00;;;;;;;;;;5126564;27;20524;-78
2022/10/30 09:12:58;;;;;;;23.00;12.30;;;;;;;;;;5127388;27;20140;-79
2022/10/30 09:15:25;;;;;;;24.95;12.35;;;;;;;;;;5145133;27;20063;-78
2022/10/30 09:17:58;;;;;;;24.83;10.55;;;;;;;;;;5147669;27;20059;-80
2022/10/30 09:20:25;;;;;;;23.40;11.73;;;;;;;;;;5129043;27;20589;-78
2022/10/30 09:22:52;;;;;;;32.33;11.38;;;;;;;;;;5148444;27;20051;-80
2022/10/30 09:25:18;;;;;;;28.00;11.88;;;;;;;;;;5138501;27;20064;-80
2022/10/30 09:27:45;;;;;;;22.83;10.60;;;;;;;;;;5142274;27;20052;-80
2022/10/30 09:30:12;;;;;;;23.35;10.88;;;;;;;;;;5125406;27;20051;-79
2022/10/30 09:32:38;;;;;;;25.52;10.55;;;;;;;;;;5114405;27;20671;-80
2022/10/30 09:35:05;;;;;;;20.38;10.20;;;;;;;;;;5146799;27;20055;-79
2022/10/30 09:37:35;;;;;;;23.92;11.00;;;;;;;;;;5129955;27;21197;-78
2022/10/30 09:40:03;;;;;;;19.30;10.00;;;;;;;;;;5128986;27;20047;-79
2022/10/30 09:42:43;;;;;;;24.08;11.50;;;;;;;;;;5126163;27;20085;-80
2022/10/30 09:45:39;;;;;;;24.33;10.40;;;;;;;;;;5133142;27;20051;-80
2022/10/30 09:48:25;;;;;;;21.13;10.35;;;;;;;;;;5130288;27;20048;-79
2022/10/30 09:51:11;;;;;;;22.13;10.30;;;;;;;;;;5113963;27;20052;-79
2022/10/30 09:53:41;;;;;;;20.92;10.05;;;;;;;;;;5127968;27;20058;-79
2022/10/30 09:56:10;;;;;;;26.15;11.32;;;;;;;;;;5130582;27;21274;-79
2022/10/30 09:58:52;;;;;;;23.63;11.33;;;;;;;;;;5124058;27;20047;-78
2022/10/30 10:01:26;;;;;;;24.60;10.73;;;;;;;;;;5120199;27;20272;-79
2022/10/30 10:04:18;;;;;;;21.98;10.95;;;;;;;;;;5145119;27;20055;-79
2022/10/30 10:07:00;;;;;;;27.33;11.15;;;;;;;;;;5094188;27;20059;-79
2022/10/30 10:09:28;;;;;;;23.67;11.43;;;;;;;;;;5151753;27;20059;-79
2022/10/30 10:12:00;;;;;;;21.80;10.63;;;;;;;;;;5134468;27;20072;-80
2022/10/30 10:14:31;;;;;;;20.88;10.43;;;;;;;;;;5148185;27;20054;-78
2022/10/30 10:16:59;;;;;;;23.92;11.20;;;;;;;;;;5134022;27;20104;-78
2022/10/30 10:19:32;;;;;;;18.88;9.05;;;;;;;;;;5132740;27;20055;-78
2022/10/30 10:22:00;;;;;;;17.38;8.73;;;;;;;;;;5131216;27;20051;-77
2022/10/30 10:24:31;;;;;;;23.35;9.75;;;;;;;;;;5147558;27;20210;-78
2022/10/30 10:26:58;;;;;;;20.95;8.65;;;;;;;;;;5146606;27;20116;-78
2022/10/30 10:29:30;;;;;;;20.70;9.07;;;;;;;;;;5130735;27;20055;-80
2022/10/30 10:32:15;;;;;;;21.73;8.93;;;;;;;;;;5121195;27;20131;-79
2022/10/30 10:34:49;;;;;;;23.08;9.50;;;;;;;;;;5149395;27;20043;-80
2022/10/30 10:37:25;;;;;;;22.65;8.90;;;;;;;;;;5143030;27;20062;-78
2022/10/30 10:40:10;;;;;;;17.85;9.20;;;;;;;;;;5148714;27;20516;-80
2022/10/30 10:42:36;;;;;;;18.35;8.80;;;;;;;;;;5149478;27;20878;-79
2022/10/30 10:45:15;;;;;;;27.83;9.13;;;;;;;;;;5145023;27;20051;-78
2022/10/30 10:48:01;;;;;;;21.60;9.45;;;;;;;;;;5130813;27;20160;-80
2022/10/30 10:50:38;;;;;;;21.55;8.90;;;;;;;;;;5126830;27;20575;-78
2022/10/30 10:53:08;;;;;;;23.77;9.65;;;;;;;;;;5122133;27;20078;-78
2022/10/30 10:55:36;;;;;;;19.50;9.70;;;;;;;;;;5121946;27;20055;-79
2022/10/30 10:58:11;;;;;;;25.27;9.85;;;;;;;;;;5138415;27;20099;-78
2022/10/30 11:00:38;;;;;;;19.08;10.05;;;;;;;;;;5143063;27;20059;-79
2022/10/30 11:03:22;;;;;;;25.42;9.48;;;;;;;;;;5124831;27;20054;-78
2022/10/30 11:05:54;;;;;;;19.98;9.55;;;;;;;;;;5127422;27;20109;-78
2022/10/30 11:08:23;;;;;;;22.52;9.93;;;;;;;;;;5120608;27;20054;-79
2022/10/30 11:10:59;;;;;;;22.63;10.02;;;;;;;;;;5117779;27;20043;-79
2022/10/30 11:13:27;;;;;;;22.85;9.55;;;;;;;;;;5122865;27;20056;-79
2022/10/30 11:16:13;;;;;;;19.60;9.85;;;;;;;;;;5123250;27;20085;-79
2022/10/30 11:18:40;;;;;;;20.98;10.05;;;;;;;;;;5135363;27;20059;-79
2022/10/30 11:21:09;;;;;;;22.02;10.18;;;;;;;;;;5126970;27;20516;-78
2022/10/30 11:23:42;;;;;;;19.70;9.15;;;;;;;;;;5150726;27;20153;-79
2022/10/30 11:26:21;;;;;;;21.85;9.23;;;;;;;;;;5149204;27;20192;-79
2022/10/30 11:29:00;;;;;;;20.40;9.68;;;;;;;;;;5132336;27;20090;-78
2022/10/30 11:31:39;;;;;;;19.65;9.02;;;;;;;;;;5132508;27;20047;-79
2022/10/30 11:34:17;;;;;;;19.08;9.30;;;;;;;;;;5126754;27;20039;-79
2022/10/30 11:36:44;;;;;;;22.15;8.82;;;;;;;;;;5132135;27;20055;-78
2022/10/30 11:39:15;;;;;;;19.90;8.70;;;;;;;;;;5147053;27;20054;-79
2022/10/30 11:41:44;;;;;;;23.65;9.75;;;;;;;;;;5150701;27;20509;-79
2022/10/30 11:44:10;;;;;;;15.82;8.88;;;;;;;;;;5121000;27;20051;-79
2022/10/30 11:46:37;;;;;;;24.83;9.38;;;;;;;;;;5135408;27;20067;-78
2022/10/30 11:49:03;;;;;;;21.00;9.50;;;;;;;;;;5119502;27;20054;-79
2022/10/30 11:51:34;;;;;;;25.60;9.90;;;;;;;;;;5132979;27;20083;-79
2022/10/30 11:54:01;;;;;;;21.27;9.57;;;;;;;;;;5132577;27;20062;-80
2022/10/30 11:56:29;;;;;;;23.10;10.07;;;;;;;;;;5149312;27;20055;-79
2022/10/30 11:58:59;;;;;;;24.90;9.15;;;;;;;;;;5148048;27;20067;-79
2022/10/30 12:01:26;;;;;;;;;;;;;;;;;;5150867;27;20055;-79
2022/10/30 12:03:52;;;;;;;21.65;7.78;;;;;;;;;;5128492;27;44375;-80
2022/10/30 12:06:22;;;;;;;21.17;8.35;;;;;;;;;;5133684;27;20532;-79
2022/10/30 12:09:07;;;;;;;20.30;8.20;;;;;;;;;;5127609;27;20059;-79
2022/10/30 12:11:34;;;;;;;18.65;8.60;;;;;;;;;;5131451;27;20054;-79
2022/10/30 12:14:00;;;;;;;18.52;8.18;;;;;;;;;;5135824;27;20035;-79
2022/10/30 12:16:27;;;;;;;17.33;7.63;;;;;;;;;;5133158;27;20105;-79
2022/10/30 12:19:01;;;;;;;20.17;8.52;;;;;;;;;;5126696;27;20062;-79
2022/10/30 12:21:29;;;;;;;25.67;8.80;;;;;;;;;;5129097;27;20874;-79
2022/10/30 12:23:57;;;;;;;21.38;7.85;;;;;;;;;;5141986;27;20055;-79
2022/10/30 12:26:24;;;;;;;24.88;8.57;;;;;;;;;;5129659;27;20066;-79
2022/10/30 12:28:54;;;;;;;20.08;7.90;;;;;;;;;;5117197;27;20481;-79
2022/10/30 12:31:23;;;;;;;20.70;9.00;;;;;;;;;;5127874;27;20059;-79
2022/10/30 12:34:12;;;;;;;22.52;8.23;;;;;;;;;;5147840;27;20086;-79
2022/10/30 12:36:43;;;;;;;16.17;7.93;;;;;;;;;;5124575;27;20062;-79
2022/10/30 12:39:20;;;;;;;17.23;8.50;;;;;;;;;;5127892;27;20043;-79
2022/10/30 12:41:58;;;;;;;17.95;8.13;;;;;;;;;;5129115;27;21940;-79
2022/10/30 12:44:29;;;;;;;22.20;8.60;;;;;;;;;;5119643;27;20055;-79
2022/10/30 12:46:58;;;;;;;18.93;8.87;;;;;;;;;;5123743;27;20054;-80
2022/10/30 12:49:34;;;;;;;22.33;7.97;;;;;;;;;;5131515;27;20269;-80
2022/10/30 12:52:02;;;;;;;21.77;9.00;;;;;;;;;;5120309;27;20052;-79
2022/10/30 12:54:31;;;;;;;21.63;8.93;;;;;;;;;;5126524;27;20059;-79
2022/10/30 12:57:11;;;;;;;18.27;8.45;;;;;;;;;;5123169;27;20737;-80
2022/10/30 12:59:38;;;;;;;;;;;;;;;;;;5146663;27;20055;-79
2022/10/30 13:02:11;;;;;;;20.55;8.98;;;;;;;;;;5124188;27;42830;-80
2022/10/30 13:04:40;;;;;;;22.40;8.88;;;;;;;;;;5146997;27;20531;-79
2022/10/30 13:07:14;;;;;;;22.13;9.85;;;;;;;;;;5143469;27;20672;-81
2022/10/30 13:09:59;;;;;;;23.33;10.10;;;;;;;;;;5122313;27;20062;-79
2022/10/30 13:12:29;;;;;;;24.00;10.73;;;;;;;;;;5139634;27;20047;-79
2022/10/30 13:14:58;;;;;;;20.30;11.05;;;;;;;;;;5125630;27;20532;-79
2022/10/30 13:17:24;;;;;;;23.77;10.70;;;;;;;;;;5124649;27;20039;-79
2022/10/30 13:19:50;;;;;;;25.75;10.88;;;;;;;;;;5121209;27;20051;-79
2022/10/30 13:22:35;;;;;;;23.25;11.40;;;;;;;;;;5135786;27;20098;-79
2022/10/30 13:25:09;;;;;;;19.63;10.50;;;;;;;;;;5128106;27;20048;-80
2022/10/30 13:27:56;;;;;;;23.77;10.18;;;;;;;;;;5145809;27;20051;-80
2022/10/30 13:30:26;;;;;;;21.13;9.52;;;;;;;;;;5131080;27;20051;-79
2022/10/30 13:33:01;;;;;;;21.77;10.85;;;;;;;;;;5135012;27;20103;-79
2022/10/30 13:35:36;;;;;;;19.38;10.10;;;;;;;;;;5128119;27;20062;-79
2022/10/30 13:38:12;;;;;;;18.38;10.48;;;;;;;;;;5147436;27;20646;-80
2022/10/30 13:40:49;;;;;;;19.30;10.60;;;;;;;;;;5129104;27;20138;-79
2022/10/30 13:43:24;;;;;;;22.67;10.88;;;;;;;;;;5118067;27;20052;-82
2022/10/30 13:46:04;;;;;;;24.15;11.73;;;;;;;;;;5131368;27;20055;-80
2022/10/30 13:48:49;;;;;;;25.05;12.15;;;;;;;;;;5150495;27;20055;-80
2022/10/30 13:51:21;;;;;;;24.27;12.25;;;;;;;;;;5133495;27;20057;-79
2022/10/30 13:53:56;;;;;;;27.90;11.48;;;;;;;;;;5146160;27;20061;-79
2022/10/30 13:56:23;;;;;;;25.85;11.15;;;;;;;;;;5147611;27;20051;-79
2022/10/30 13:58:58;;;;;;;25.88;14.48;;;;;;;;;;5127444;27;20055;-78
2022/10/30 14:01:35;;;;;;;30.67;15.27;;;;;;;;;;5123170;27;20499;-80
2022/10/30 14:04:01;;;;;;;22.77;13.40;;;;;;;;;;5127094;27;20070;-80
2022/10/30 14:06:35;;;;;;;23.23;11.27;;;;;;;;;;5155954;27;20865;-80
2022/10/30 14:09:03;;;;;;;22.45;11.13;;;;;;;;;;5145988;27;20047;-79
2022/10/30 14:11:29;;;;;;;29.83;11.75;;;;;;;;;;5127513;27;20059;-80
2022/10/30 14:14:02;;;;;;;27.58;11.23;;;;;;;;;;5135171;27;20062;-79
2022/10/30 14:16:44;;;;;;;21.08;10.65;;;;;;;;;;5148412;27;20043;-79
2022/10/30 14:19:12;;;;;;;23.77;11.07;;;;;;;;;;5128292;27;20066;-79
2022/10/30 14:21:51;;;;;;;21.58;11.25;;;;;;;;;;5128467;27;20527;-79
2022/10/30 14:24:20;;;;;;;23.08;10.90;;;;;;;;;;5137012;27;20062;-78
2022/10/30 14:26:51;;;;;;;23.75;11.43;;;;;;;;;;5128097;27;20517;-79
2022/10/30 14:29:30;;;;;;;25.02;11.45;;;;;;;;;;5131497;27;20130;-79
2022/10/30 14:31:56;;;;;;;21.27;11.27;;;;;;;;;;5142688;27;20047;-79
2022/10/30 14:34:41;;;;;;;21.02;10.45;;;;;;;;;;5146757;27;20057;-78
2022/10/30 14:37:08;;;;;;;23.70;11.05;;;;;;;;;;5127174;27;20679;-78